Time;durP1;ratioP1;P1;durP2;ratioP2;P2;SDS_P1;SDS_P2;PMS_P1;PMS_P2;Temp;Humidity;BMP_temperature;BMP_pressure;BME280_temperature;BME280_humidity;BME280_pressure;Samples;Min_cycle;Max_cycle;Signal;HPM_P1;HPM_P2
2021/05/08 00:09:28;;;;;;;9.60;5.97;;;;;;;3.34;92.26;100665.91;20936380;28;20103;-72
2021/05/08 00:19:29;;;;;;;11.73;6.03;;;;;;;3.23;92.60;100665.28;20968900;28;20061;-73
2021/05/08 00:29:30;;;;;;;10.73;6.93;;;;;;;3.09;92.90;100669.88;20999028;28;20045;-72
2021/05/08 00:39:31;;;;;;;9.57;6.57;;;;;;;2.95;92.75;100667.53;20998889;28;20047;-73
2021/05/08 00:49:33;;;;;;;13.27;6.65;;;;;;;2.95;91.71;100675.28;20995098;28;20059;-72
2021/05/08 00:59:34;;;;;;;11.10;6.75;;;;;;;2.84;92.89;100660.00;20995603;28;20045;-71
2021/05/08 01:09:36;;;;;;;11.35;6.13;;;;;;;2.89;93.53;100667.69;20994019;28;20454;-72
2021/05/08 01:19:37;;;;;;;11.10;6.65;;;;;;;2.74;93.14;100647.28;20969614;28;20102;-72
2021/05/08 01:29:39;;;;;;;11.68;6.43;;;;;;;2.59;93.64;100643.25;20993551;28;20056;-71
2021/05/08 01:39:40;;;;;;;10.63;6.50;;;;;;;2.55;93.85;100639.84;20991610;28;20098;-70
2021/05/08 01:49:41;;;;;;;9.70;6.57;;;;;;;2.38;95.32;100630.69;20986785;28;20052;-72
2021/05/08 01:59:43;;;;;;;13.02;7.82;;;;;;;2.24;95.19;100620.59;20990323;28;20461;-71
2021/05/08 02:09:44;;;;;;;10.82;6.57;;;;;;;1.97;95.08;100614.16;20974444;28;20106;-71
2021/05/08 02:19:45;;;;;;;10.13;6.68;;;;;;;1.91;95.22;100610.81;20959858;28;20052;-70
2021/05/08 02:29:46;;;;;;;13.82;6.13;;;;;;;1.73;95.21;100615.38;20986896;28;20086;-70
2021/05/08 02:39:47;;;;;;;11.77;7.03;;;;;;;1.67;96.34;100609.47;20985476;28;20555;-71
2021/05/08 02:49:50;;;;;;;11.73;6.78;;;;;;;1.67;94.78;100625.81;20980918;28;20049;-71
2021/05/08 02:59:52;;;;;;;12.25;7.70;;;;;;;1.53;96.22;100614.81;20985576;28;20053;-72
2021/05/08 03:09:53;;;;;;;12.93;7.22;;;;;;;1.40;95.78;100609.84;20985368;28;20070;-71
2021/05/08 03:19:55;;;;;;;12.38;7.53;;;;;;;1.18;96.66;100602.38;20978429;28;20098;-72
2021/05/08 03:29:56;;;;;;;13.95;8.27;;;;;;;0.98;96.64;100595.78;20983649;28;20048;-71
2021/05/08 03:39:58;;;;;;;12.35;7.72;;;;;;;0.90;97.08;100597.59;20965348;28;20500;-72
2021/05/08 03:49:59;;;;;;;12.70;7.80;;;;;;;0.97;97.74;100596.63;20993477;28;20438;-72
2021/05/08 04:00:00;;;;;;;15.63;9.07;;;;;;;1.08;97.46;100590.50;20999343;28;20122;-72
2021/05/08 04:10:03;;;;;;;13.38;7.85;;;;;;;1.10;96.44;100578.44;20926731;28;20040;-72
2021/05/08 04:20:05;;;;;;;14.10;7.82;;;;;;;1.16;96.44;100577.53;20970581;28;20048;-72
2021/05/08 04:30:07;;;;;;;13.38;7.40;;;;;;;1.31;95.26;100581.63;20964439;22;20045;-70
2021/05/08 04:40:09;;;;;;;14.35;8.73;;;;;;;1.90;92.48;100603.94;20995449;28;20054;-70
2021/05/08 04:50:11;;;;;;;12.45;7.35;;;;;;;2.39;90.77;100607.41;20980451;28;20541;-69
2021/05/08 05:00:14;;;;;;;16.55;7.72;;;;;;;2.28;92.66;100606.75;20992199;28;20048;-69
2021/05/08 05:10:15;;;;;;;13.50;7.40;;;;;;;2.55;92.85;100611.44;20994450;28;20052;-70
2021/05/08 05:20:16;;;;;;;14.75;8.00;;;;;;;2.93;94.22;100599.53;20978731;28;20098;-70
2021/05/08 05:30:20;;;;;;;12.02;7.55;;;;;;;3.31;95.29;100593.53;20990533;28;20458;-71
2021/05/08 05:40:21;;;;;;;11.65;8.30;;;;;;;3.71;92.48;100599.53;20990557;28;20189;-70
2021/05/08 05:50:24;;;;;;;13.95;8.15;;;;;;;4.03;91.70;100614.31;20958208;28;20507;-69
2021/05/08 06:00:26;;;;;;;11.50;7.55;;;;;;;4.44;89.15;100607.25;20989169;28;20102;-69
2021/05/08 06:10:27;;;;;;;12.50;7.20;;;;;;;4.85;86.83;100608.75;20949709;28;20057;-69
2021/05/08 06:20:28;;;;;;;10.95;6.90;;;;;;;5.26;83.13;100615.34;20940631;28;20183;-69
2021/05/08 06:30:30;;;;;;;11.20;7.40;;;;;;;5.72;82.25;100597.50;20968815;28;20048;-68
2021/05/08 06:40:32;;;;;;;8.73;5.22;;;;;;;6.19;77.97;100579.56;20986797;28;20044;-69
2021/05/08 06:50:34;;;;;;;13.70;5.75;;;;;;;6.92;75.83;100580.44;20953401;28;20059;-70
2021/05/08 07:00:36;;;;;;;10.50;6.43;;;;;;;7.48;73.89;100591.34;20985278;28;20381;-69
2021/05/08 07:10:49;;;;;;;12.63;7.00;;;;;;;7.85;71.54;100588.16;20861744;28;20500;-70
2021/05/08 07:20:50;;;;;;;9.45;5.65;;;;;;;8.15;72.78;100583.44;20948271;28;20049;-69
2021/05/08 07:30:55;;;;;;;12.00;5.15;;;;;;;8.43;71.06;100594.44;20909277;28;20495;-70
2021/05/08 07:40:57;;;;;;;8.13;4.50;;;;;;;8.79;68.86;100585.94;20875271;28;20057;-71
2021/05/08 07:50:58;;;;;;;8.52;4.32;;;;;;;8.73;64.59;100573.19;20948159;28;20049;-69
2021/05/08 08:00:59;;;;;;;7.97;4.60;;;;;;;9.41;64.28;100570.03;20983974;28;20143;-69
2021/05/08 08:11:00;;;;;;;8.77;4.70;;;;;;;10.12;61.78;100558.72;20906044;28;20060;-69
2021/05/08 08:21:04;;;;;;;10.75;4.65;;;;;;;11.08;57.84;100554.59;20946080;28;20045;-69
2021/05/08 08:31:06;;;;;;;7.63;4.38;;;;;;;11.73;57.84;100550.19;20988182;28;20037;-69
2021/05/08 08:41:07;;;;;;;8.32;4.30;;;;;;;12.14;56.89;100554.84;20998083;28;20071;-66
2021/05/08 08:51:08;;;;;;;8.48;4.03;;;;;;;12.55;53.40;100537.47;20981822;28;20048;-67
2021/05/08 09:01:10;;;;;;;6.30;3.72;;;;;;;13.08;52.63;100535.97;20949077;28;20095;-67
2021/05/08 09:11:19;;;;;;;8.35;4.00;;;;;;;13.59;49.60;100532.69;20909546;28;20111;-67
2021/05/08 09:21:28;;;;;;;8.57;4.15;;;;;;;13.40;49.95;100516.41;20909888;28;20099;-67
2021/05/08 09:31:29;;;;;;;6.95;3.55;;;;;;;13.90;48.02;100499.13;20927493;28;20044;-67
2021/05/08 09:41:45;;;;;;;12.27;4.57;;;;;;;14.07;48.66;100490.94;20972783;28;20059;-67
2021/05/08 09:52:00;;;;;;;7.03;3.00;;;;;;;14.34;46.22;100482.97;20990820;28;20071;-67
2021/05/08 10:02:02;;;;;;;8.57;4.10;;;;;;;14.93;46.53;100457.75;20970643;28;20090;-67
2021/05/08 10:12:13;;;;;;;4.57;2.38;;;;;;;16.07;40.52;100441.38;20969507;28;20422;-67
2021/05/08 10:22:16;;;;;;;7.35;2.83;;;;;;;16.07;41.86;100439.59;20972328;28;20052;-67
2021/05/08 10:32:19;;;;;;;5.15;2.30;;;;;;;16.32;40.23;100416.56;20970175;28;20435;-67
2021/05/08 10:42:40;;;;;;;6.22;2.35;;;;;;;16.47;39.94;100395.06;20988329;28;20132;-67
2021/05/08 10:53:02;;;;;;;6.90;2.75;;;;;;;17.08;38.59;100380.44;20966054;28;20094;-68
2021/05/08 11:03:04;;;;;;;4.95;2.00;;;;;;;16.87;37.17;100379.53;20965009;28;20352;-68
2021/05/08 11:13:16;;;;;;;4.95;1.92;;;;;;;17.23;37.95;100372.22;20966155;28;20053;-69
2021/05/08 11:23:19;;;;;;;2.60;1.40;;;;;;;17.33;34.81;100347.53;20904121;28;20049;-68
2021/05/08 11:33:27;;;;;;;3.15;1.30;;;;;;;17.36;36.33;100336.72;20955420;28;20051;-67
2021/05/08 11:43:28;;;;;;;6.60;1.70;;;;;;;17.72;35.19;100318.72;20902079;28;20041;-68
2021/05/08 11:53:30;;;;;;;4.13;1.50;;;;;;;17.37;34.88;100308.44;20926808;28;20051;-67
2021/05/08 12:03:31;;;;;;;3.28;1.55;;;;;;;17.87;34.95;100307.66;20909131;28;20500;-67
2021/05/08 12:13:32;;;;;;;3.97;1.52;;;;;;;17.36;34.57;100299.66;20913158;28;20049;-68
2021/05/08 12:23:35;;;;;;;2.88;1.20;;;;;;;17.26;34.88;100285.53;20918598;28;20048;-69
2021/05/08 12:33:37;;;;;;;8.02;2.50;;;;;;;17.29;37.41;100271.19;20968687;28;20048;-69
2021/05/08 12:43:39;;;;;;;5.57;1.98;;;;;;;17.62;39.29;100249.84;21060643;28;20462;-69
2021/05/08 12:53:40;;;;;;;5.78;2.15;;;;;;;17.61;37.38;100249.97;21062475;28;20051;-69
2021/05/08 13:03:42;;;;;;;3.45;1.60;;;;;;;18.20;35.12;100236.81;21059631;28;20488;-69
2021/05/08 13:13:43;;;;;;;6.03;1.83;;;;;;;18.46;36.60;100224.72;21052054;28;20098;-69
2021/05/08 13:23:44;;;;;;;4.55;1.55;;;;;;;18.05;34.66;100201.06;20992739;28;20098;-69
2021/05/08 13:33:48;;;;;;;3.40;1.27;;;;;;;18.50;34.91;100181.06;21049014;28;20117;-69
2021/05/08 13:43:50;;;;;;;3.47;1.33;;;;;;;18.82;34.00;100164.06;21076716;28;20469;-69
2021/05/08 13:53:51;;;;;;;4.63;1.90;;;;;;;18.58;35.26;100146.78;21063786;28;20090;-69
2021/05/08 14:03:52;;;;;;;3.20;1.40;;;;;;;19.01;34.52;100141.00;20952189;28;20048;-69
2021/05/08 14:13:54;;;;;;;3.45;1.60;;;;;;;19.38;34.61;100140.19;20935189;28;20045;-70
2021/05/08 14:23:55;;;;;;;3.78;1.30;;;;;;;19.42;33.00;100123.81;20988486;28;20052;-70
2021/05/08 14:33:57;;;;;;;3.13;1.10;;;;;;;19.06;33.79;100104.25;21050804;28;20070;-69
2021/05/08 14:43:58;;;;;;;2.60;1.30;;;;;;;18.80;35.27;100093.44;21073128;28;20517;-70
2021/05/08 14:54:00;;;;;;;3.72;0.98;;;;;;;18.61;36.39;100066.97;21077035;28;20067;-70
2021/05/08 15:04:01;;;;;;;2.05;1.10;;;;;;;18.67;36.43;100055.78;21054539;28;20044;-69
2021/05/08 15:14:04;;;;;;;3.17;1.73;;;;;;;18.55;36.07;100038.38;21041173;28;20076;-70
2021/05/08 15:24:06;;;;;;;5.88;1.65;;;;;;;18.23;37.74;100024.59;20988261;28;20048;-69
2021/05/08 15:34:11;;;;;;;3.38;1.58;;;;;;;18.14;37.88;100030.72;21001662;28;20048;-69
2021/05/08 15:44:13;;;;;;;3.53;1.60;;;;;;;18.17;39.05;100017.22;20995572;28;20094;-69
2021/05/08 15:54:14;;;;;;;3.83;1.42;;;;;;;18.13;39.66;100002.56;21001900;28;20492;-68
2021/05/08 16:04:16;;;;;;;3.58;1.38;;;;;;;18.80;38.97;99997.13;21055175;28;20051;-68
2021/05/08 16:14:17;;;;;;;4.38;1.40;;;;;;;19.28;37.34;99983.63;21052117;28;20530;-69
2021/05/08 16:24:18;;;;;;;3.67;1.50;;;;;;;19.20;38.31;99964.94;20980565;28;20094;-69
2021/05/08 16:34:20;;;;;;;3.50;1.73;;;;;;;19.20;38.05;99962.31;21027988;28;20048;-69
2021/05/08 16:44:21;;;;;;;3.70;1.60;;;;;;;19.40;38.27;99947.91;20997438;28;20052;-69
2021/05/08 16:54:22;;;;;;;4.72;1.90;;;;;;;19.17;39.13;99942.22;20995658;28;20102;-69
2021/05/08 17:04:24;;;;;;;4.47;2.58;;;;;;;18.65;39.69;99941.09;21056839;28;20101;-69
2021/05/08 17:14:26;;;;;;;4.82;1.77;;;;;;;18.55;40.39;99935.00;21047619;28;20044;-68
2021/05/08 17:24:27;;;;;;;3.42;1.63;;;;;;;18.63;39.76;99931.63;20993387;28;20052;-68
2021/05/08 17:34:30;;;;;;;3.00;1.45;;;;;;;18.70;40.07;99928.22;21055664;28;20051;-69
2021/05/08 17:44:32;;;;;;;3.33;1.52;;;;;;;18.83;40.11;99916.47;21049674;28;20110;-69
2021/05/08 17:54:34;;;;;;;3.10;1.40;;;;;;;18.21;40.87;99918.75;21076824;28;20048;-69
2021/05/08 18:04:37;;;;;;;5.18;2.00;;;;;;;17.81;42.11;99905.72;21024767;28;20036;-70
2021/05/08 18:14:39;;;;;;;5.63;3.28;;;;;;;17.34;42.57;99901.25;21002248;28;20124;-68
2021/05/08 18:24:42;;;;;;;5.72;2.50;;;;;;;16.73;45.26;99892.63;21008568;28;20048;-69
2021/05/08 18:34:43;;;;;;;5.20;2.72;;;;;;;16.09;48.68;99888.47;21066246;28;20048;-69
2021/05/08 18:44:48;;;;;;;7.93;2.13;;;;;;;15.39;52.98;99894.31;21064849;28;20052;-67
2021/05/08 18:54:53;;;;;;;4.97;1.67;;;;;;;14.81;56.86;99894.72;21099279;28;20056;-68
2021/05/08 19:04:57;;;;;;;4.95;1.80;;;;;;;14.36;55.89;99893.88;21065841;28;20394;-68
2021/05/08 19:15:01;;;;;;;4.00;1.70;;;;;;;13.81;59.80;99890.25;21022479;28;20089;-69
2021/05/08 19:25:04;;;;;;;9.93;1.90;;;;;;;13.40;60.86;99892.47;20989866;28;20048;-67
2021/05/08 19:35:07;;;;;;;7.70;1.70;;;;;;;13.06;63.88;99901.94;21053638;28;20036;-69
2021/05/08 19:45:09;;;;;;;6.32;2.10;;;;;;;12.74;64.43;99901.66;21011377;28;20044;-69
2021/05/08 19:55:12;;;;;;;4.97;2.15;;;;;;;12.44;66.11;99886.28;21053349;28;20044;-69
2021/05/08 20:05:13;;;;;;;4.43;1.90;;;;;;;12.17;68.58;99885.56;21049534;28;20041;-68
2021/05/08 20:15:14;;;;;;;5.93;1.90;;;;;;;11.93;68.09;99878.44;21031880;28;20564;-67
2021/05/08 20:25:16;;;;;;;5.13;2.53;;;;;;;11.65;68.67;99878.56;20968690;28;20052;-68
2021/05/08 20:35:18;;;;;;;5.25;2.45;;;;;;;11.43;71.71;99873.91;21067493;28;20070;-68
2021/05/08 20:45:20;;;;;;;5.22;2.88;;;;;;;11.27;72.31;99865.41;21008392;28;20044;-68
2021/05/08 20:55:22;;;;;;;5.75;2.63;;;;;;;11.05;72.69;99857.25;20999663;28;20056;-68
2021/05/08 21:05:23;;;;;;;4.80;2.42;;;;;;;10.86;73.11;99844.50;21050527;28;20044;-68
2021/05/08 21:15:25;;;;;;;3.80;2.00;;;;;;;10.68;73.94;99853.50;21038344;28;20044;-69
2021/05/08 21:25:26;;;;;;;6.80;3.20;;;;;;;10.53;75.56;99857.94;20979006;28;20058;-67
2021/05/08 21:35:28;;;;;;;8.52;3.08;;;;;;;10.31;76.89;99852.34;21064961;28;20454;-69
2021/05/08 21:45:30;;;;;;;7.80;4.20;;;;;;;10.10;78.46;99864.97;21077903;28;20051;-70
2021/05/08 21:55:31;;;;;;;6.63;3.28;;;;;;;10.00;76.66;99860.38;21073631;28;20051;-71
2021/05/08 22:05:33;;;;;;;5.00;3.00;;;;;;;9.61;79.97;99868.81;20997847;28;20557;-71
2021/05/08 22:15:37;;;;;;;7.75;4.35;;;;;;;9.48;81.56;99870.47;20968411;28;20045;-71
2021/05/08 22:25:38;;;;;;;9.57;4.55;;;;;;;9.37;83.17;99871.94;20967257;28;20061;-71
2021/05/08 22:35:40;;;;;;;8.75;4.28;;;;;;;9.23;83.26;99863.22;21004491;28;20111;-72
2021/05/08 22:45:41;;;;;;;9.52;4.50;;;;;;;9.08;83.47;99851.03;20990002;22;20051;-72
2021/05/08 22:55:42;;;;;;;8.68;5.53;;;;;;;8.88;85.35;99837.34;21021813;28;20086;-72
2021/05/08 23:05:43;;;;;;;11.93;5.43;;;;;;;8.74;86.44;99844.22;21041549;28;20048;-73
2021/05/08 23:15:45;;;;;;;9.68;6.55;;;;;;;8.69;88.11;99839.28;21068071;28;20048;-72
2021/05/08 23:25:46;;;;;;;10.80;6.20;;;;;;;8.73;86.78;99827.75;21068350;28;20063;-73
2021/05/08 23:35:48;;;;;;;9.75;5.68;;;;;;;8.39;87.78;99807.91;21040494;28;20048;-72
2021/05/08 23:45:51;;;;;;;15.23;5.82;;;;;;;8.13;89.82;99795.41;21067623;28;20462;-73
2021/05/08 23:55:52;;;;;;;9.93;5.80;;;;;;;8.20;90.45;99796.75;21067162;28;20487;-72
